Arnoldsville, Georgia
Current Conditions -  °F | °C
As of 8:51 PM on Friday 28 Nov 2014 (Local Time) from KAHN Reporting Station
Clear Clear  
Wind Chill: 35°   Ceiling: Unl
Heat Index: 35°   Visibility: 10mi
Dew Point: 26°   Wind: 3mph
Humidity: 70%   Direction: 180°S
Pressure: 30.3"   Gusts: NA
Location:  33.91°N, 83.22°W
Report Text: KAHN 290151Z AUTO 18003KT 10SM CLR 02/M03 A3030 RMK AO2 SLP268 T00171033
Loading
Personal Weather Stations






























Interactive Weather Map New forecast layout! Learn more

10-Day Weather Forecast

Advertisements
Track Severe Weather on mobile